»·PEaware :: N80183 L88-KSBP

N80183 :: L88-KSBP

FLIGHT INFORMATION

Flight Status: Arrived
Operator: Privately registered:
United States
More flights under this callsign
Pilot: Ralph G. (17389)
Aircraft: CESSNA 172 SKYHAWK
(C172)
More flights by this aircraft type
Origin: L88 New Cuyama
United States
Destination: KSBP San Luis Co Regl
United States
More flights between these airports :: More routes between these airports
Route:
File this flight plan on PilotEdge
Remarks:
Altitude:
(Current/Filed)
6,500ft
Speed:
(Current/Filed)
100kts
Departed: 08-Nov-18 04:22 PM
Arrived: 08-Nov-18 05:03 PM
Distance/Time
Traveled:
50nm/0:41
Distance/Time
To Go:
Arrived

Flight Plot

Page will automatically refresh every two minutes.


Map Options




Map Legend


Flown Route
Filed Route
Departure Airport
Arrival Airport
Navaid (VOR, NDB)
Fix

Horizontal Profiles

Position Reports

Time Latitude Longitude Heading Altitude Ground
Speed
08-Nov-18 16:14 34.942372 -119.691055 207 2154ft 0kts
08-Nov-18 16:15 34.942372 -119.691055 207 2154ft 0kts
08-Nov-18 16:16 34.942372 -119.691055 207 2154ft 0kts
08-Nov-18 16:17 34.942372 -119.691055 207 2154ft 0kts
08-Nov-18 16:18 34.942372 -119.691055 207 2154ft 0kts
08-Nov-18 16:19 34.942372 -119.691055 207 2154ft 0kts
08-Nov-18 16:20 34.942372 -119.691055 207 2154ft 0kts
08-Nov-18 16:21 34.942372 -119.691055 207 2154ft 0kts
08-Nov-18 16:22 34.941778 -119.690089 117 2157ft 23kts
08-Nov-18 16:23 34.937579 -119.679922 98 2206ft 5kts
08-Nov-18 16:24 34.937690 -119.680050 292 2205ft 0kts
08-Nov-18 16:25 34.940753 -119.687671 299 2351ft 69kts
08-Nov-18 16:26 34.943259 -119.711702 272 3101ft 77kts
08-Nov-18 16:27 34.946747 -119.736316 285 3886ft 75kts
08-Nov-18 16:28 34.951343 -119.760870 294 4619ft 76kts
08-Nov-18 16:29 34.959093 -119.784541 291 5319ft 76kts
08-Nov-18 16:30 34.965328 -119.809138 282 5984ft 76kts
08-Nov-18 16:31 34.971090 -119.838107 291 6466ft 101kts
08-Nov-18 16:32 34.985083 -119.871937 298 6516ft 115kts
08-Nov-18 16:33 34.998817 -119.907213 295 6453ft 115kts
08-Nov-18 16:34 35.010532 -119.943365 290 6409ft 113kts
08-Nov-18 16:35 35.022298 -119.979163 290 6411ft 111kts
08-Nov-18 16:36 35.035222 -120.013508 296 6438ft 111kts
08-Nov-18 16:37 35.046082 -120.049000 291 6460ft 111kts
08-Nov-18 16:38 35.057386 -120.084262 291 6483ft 111kts
08-Nov-18 16:39 35.067059 -120.120219 284 6506ft 111kts
08-Nov-18 16:40 35.074950 -120.156919 286 6529ft 111kts
08-Nov-18 16:41 35.085169 -120.192769 290 6552ft 111kts
08-Nov-18 16:42 35.094460 -120.229298 287 6520ft 114kts
08-Nov-18 16:43 35.104743 -120.265680 286 6489ft 115kts
08-Nov-18 16:44 35.113492 -120.303186 282 6449ft 114kts
08-Nov-18 16:45 35.124202 -120.339656 289 6404ft 114kts
08-Nov-18 16:46 35.134575 -120.376276 286 6411ft 111kts
08-Nov-18 16:47 35.142259 -120.412759 281 6442ft 112kts
08-Nov-18 16:48 35.151140 -120.448098 289 6553ft 109kts
08-Nov-18 16:49 35.161867 -120.483265 290 6584ft 111kts
08-Nov-18 16:50 35.169035 -120.520361 286 6543ft 115kts
08-Nov-18 16:51 35.180930 -120.556080 295 6534ft 114kts
08-Nov-18 16:52 35.195313 -120.590483 288 6502ft 114kts
08-Nov-18 16:53 35.205095 -120.625203 288 5765ft 108kts
08-Nov-18 16:54 35.207400 -120.660310 221 4787ft 111kts
08-Nov-18 16:55 35.181079 -120.654176 134 4284ft 88kts
08-Nov-18 16:56 35.165257 -120.628115 91 3619ft 94kts
08-Nov-18 16:57 35.167680 -120.616606 64 3482ft 93kts
08-Nov-18 16:58 35.167680 -120.616606 64 3482ft 93kts
08-Nov-18 16:59 35.182781 -120.613437 284 3042ft 98kts
08-Nov-18 17:00 35.190051 -120.640302 324 2205ft 104kts
08-Nov-18 17:01 35.217631 -120.660894 345 1204ft 100kts
08-Nov-18 17:02 35.226418 -120.686024 291 920ft 75kts
08-Nov-18 17:03 35.240249 -120.682122 99 995ft 87kts
08-Nov-18 17:04 35.245196 -120.662130 76 988ft 66kts
08-Nov-18 17:05 35.238732 -120.643459 128 208ft 62kts
08-Nov-18 17:06 35.235306 -120.636167 78 203ft 0kts
08-Nov-18 17:07 35.235306 -120.636167 78 203ft 0kts
08-Nov-18 17:08 35.235310 -120.636144 77 203ft 0kts
08-Nov-18 17:09 35.236088 -120.636302 19 203ft 5kts
08-Nov-18 17:10 35.236630 -120.636810 259 203ft 0kts
08-Nov-18 17:11 35.236630 -120.636810 259 203ft 0kts
08-Nov-18 17:12 35.236630 -120.636810 259 203ft 0kts

Navigation Log

Ident Type
1. L88 Airport
2. KSBP Airport